sensor_id;sensor_type;location;lat;lon;timestamp;P1;durP1;ratioP1;P2;durP2;ratioP2
6017;SDS011;3037;51.068;13.780;2023-02-08T00:00:07;55.80;;;30.90;;
6017;SDS011;3037;51.068;13.780;2023-02-08T00:02:33;59.27;;;29.30;;
6017;SDS011;3037;51.068;13.780;2023-02-08T00:04:59;56.80;;;30.80;;
6017;SDS011;3037;51.068;13.780;2023-02-08T00:07:24;59.30;;;32.60;;
6017;SDS011;3037;51.068;13.780;2023-02-08T00:09:50;56.50;;;32.70;;
6017;SDS011;3037;51.068;13.780;2023-02-08T00:12:15;60.90;;;33.00;;
6017;SDS011;3037;51.068;13.780;2023-02-08T00:14:41;62.97;;;32.40;;
6017;SDS011;3037;51.068;13.780;2023-02-08T00:17:06;60.17;;;33.20;;
6017;SDS011;3037;51.068;13.780;2023-02-08T00:19:32;58.63;;;30.37;;
6017;SDS011;3037;51.068;13.780;2023-02-08T00:21:57;53.23;;;31.27;;
6017;SDS011;3037;51.068;13.780;2023-02-08T00:24:23;62.43;;;32.40;;
6017;SDS011;3037;51.068;13.780;2023-02-08T00:26:48;57.37;;;32.70;;
6017;SDS011;3037;51.068;13.780;2023-02-08T00:29:14;61.33;;;32.37;;
6017;SDS011;3037;51.068;13.780;2023-02-08T00:31:39;61.83;;;33.40;;
6017;SDS011;3037;51.068;13.780;2023-02-08T00:34:05;66.00;;;34.40;;
6017;SDS011;3037;51.068;13.780;2023-02-08T00:36:30;59.53;;;32.77;;
6017;SDS011;3037;51.068;13.780;2023-02-08T00:38:56;58.67;;;32.60;;
6017;SDS011;3037;51.068;13.780;2023-02-08T00:41:21;65.67;;;35.20;;
6017;SDS011;3037;51.068;13.780;2023-02-08T00:43:47;55.73;;;32.73;;
6017;SDS011;3037;51.068;13.780;2023-02-08T00:46:12;88.03;;;36.43;;
6017;SDS011;3037;51.068;13.780;2023-02-08T00:48:38;71.77;;;32.57;;
6017;SDS011;3037;51.068;13.780;2023-02-08T00:51:08;60.80;;;32.73;;
6017;SDS011;3037;51.068;13.780;2023-02-08T00:53:38;66.67;;;35.17;;
6017;SDS011;3037;51.068;13.780;2023-02-08T00:56:05;70.63;;;33.00;;
6017;SDS011;3037;51.068;13.780;2023-02-08T00:58:32;70.40;;;37.57;;
6017;SDS011;3037;51.068;13.780;2023-02-08T01:00:59;77.63;;;37.23;;
6017;SDS011;3037;51.068;13.780;2023-02-08T01:03:25;71.33;;;36.97;;
6017;SDS011;3037;51.068;13.780;2023-02-08T01:05:51;70.77;;;34.87;;
6017;SDS011;3037;51.068;13.780;2023-02-08T01:08:17;63.83;;;36.10;;
6017;SDS011;3037;51.068;13.780;2023-02-08T01:10:45;69.10;;;34.83;;
6017;SDS011;3037;51.068;13.780;2023-02-08T01:13:11;62.70;;;33.70;;
6017;SDS011;3037;51.068;13.780;2023-02-08T01:15:37;74.43;;;33.10;;
6017;SDS011;3037;51.068;13.780;2023-02-08T01:18:02;70.00;;;33.97;;
6017;SDS011;3037;51.068;13.780;2023-02-08T01:20:28;64.23;;;36.03;;
6017;SDS011;3037;51.068;13.780;2023-02-08T01:22:54;69.57;;;37.03;;
6017;SDS011;3037;51.068;13.780;2023-02-08T01:25:20;74.43;;;35.60;;
6017;SDS011;3037;51.068;13.780;2023-02-08T01:27:46;73.63;;;35.23;;
6017;SDS011;3037;51.068;13.780;2023-02-08T01:30:12;68.80;;;35.67;;
6017;SDS011;3037;51.068;13.780;2023-02-08T01:32:37;62.63;;;33.10;;
6017;SDS011;3037;51.068;13.780;2023-02-08T01:35:03;68.03;;;34.13;;
6017;SDS011;3037;51.068;13.780;2023-02-08T01:37:29;65.87;;;34.57;;
6017;SDS011;3037;51.068;13.780;2023-02-08T01:39:54;57.37;;;33.83;;
6017;SDS011;3037;51.068;13.780;2023-02-08T01:42:20;71.57;;;33.50;;
6017;SDS011;3037;51.068;13.780;2023-02-08T01:48:11;58.97;;;30.47;;
6017;SDS011;3037;51.068;13.780;2023-02-08T01:50:43;54.97;;;31.70;;
6017;SDS011;3037;51.068;13.780;2023-02-08T01:53:19;58.00;;;30.60;;
6017;SDS011;3037;51.068;13.780;2023-02-08T01:55:47;66.70;;;32.50;;
6017;SDS011;3037;51.068;13.780;2023-02-08T01:58:15;64.13;;;30.80;;
6017;SDS011;3037;51.068;13.780;2023-02-08T02:00:43;59.17;;;30.60;;
6017;SDS011;3037;51.068;13.780;2023-02-08T02:03:09;70.37;;;31.33;;
6017;SDS011;3037;51.068;13.780;2023-02-08T02:05:40;61.07;;;34.30;;
6017;SDS011;3037;51.068;13.780;2023-02-08T02:08:07;62.37;;;32.30;;
6017;SDS011;3037;51.068;13.780;2023-02-08T02:10:34;60.97;;;31.27;;
6017;SDS011;3037;51.068;13.780;2023-02-08T02:13:03;58.13;;;32.53;;
6017;SDS011;3037;51.068;13.780;2023-02-08T02:15:32;65.30;;;30.83;;
6017;SDS011;3037;51.068;13.780;2023-02-08T02:17:57;55.07;;;30.67;;
6017;SDS011;3037;51.068;13.780;2023-02-08T02:23:08;56.33;;;30.80;;
6017;SDS011;3037;51.068;13.780;2023-02-08T02:31:24;60.57;;;33.07;;
6017;SDS011;3037;51.068;13.780;2023-02-08T02:34:00;55.40;;;31.70;;
6017;SDS011;3037;51.068;13.780;2023-02-08T02:36:47;62.87;;;30.83;;
6017;SDS011;3037;51.068;13.780;2023-02-08T02:39:36;57.07;;;31.13;;
6017;SDS011;3037;51.068;13.780;2023-02-08T02:45:25;63.23;;;33.13;;
6017;SDS011;3037;51.068;13.780;2023-02-08T02:48:19;57.83;;;31.03;;
6017;SDS011;3037;51.068;13.780;2023-02-08T02:50:57;59.53;;;30.30;;
6017;SDS011;3037;51.068;13.780;2023-02-08T02:53:41;56.57;;;30.57;;
6017;SDS011;3037;51.068;13.780;2023-02-08T02:56:23;56.70;;;29.20;;
6017;SDS011;3037;51.068;13.780;2023-02-08T02:58:54;56.27;;;30.73;;
6017;SDS011;3037;51.068;13.780;2023-02-08T03:01:25;62.77;;;30.00;;
6017;SDS011;3037;51.068;13.780;2023-02-08T03:03:51;55.30;;;28.63;;
6017;SDS011;3037;51.068;13.780;2023-02-08T03:06:30;49.70;;;29.40;;
6017;SDS011;3037;51.068;13.780;2023-02-08T03:09:02;67.57;;;30.53;;
6017;SDS011;3037;51.068;13.780;2023-02-08T03:11:38;48.27;;;27.50;;
6017;SDS011;3037;51.068;13.780;2023-02-08T03:19:44;56.40;;;27.23;;
6017;SDS011;3037;51.068;13.780;2023-02-08T03:22:19;60.03;;;27.77;;
6017;SDS011;3037;51.068;13.780;2023-02-08T03:25:06;56.27;;;31.60;;
6017;SDS011;3037;51.068;13.780;2023-02-08T03:27:40;53.80;;;29.97;;
6017;SDS011;3037;51.068;13.780;2023-02-08T03:30:27;54.60;;;29.70;;
6017;SDS011;3037;51.068;13.780;2023-02-08T03:33:02;54.83;;;28.20;;
6017;SDS011;3037;51.068;13.780;2023-02-08T03:35:38;72.10;;;33.40;;
6017;SDS011;3037;51.068;13.780;2023-02-08T03:38:10;74.43;;;33.53;;
6017;SDS011;3037;51.068;13.780;2023-02-08T03:40:43;85.87;;;32.13;;
6017;SDS011;3037;51.068;13.780;2023-02-08T03:43:13;56.70;;;29.30;;
6017;SDS011;3037;51.068;13.780;2023-02-08T03:45:53;56.90;;;28.10;;
6017;SDS011;3037;51.068;13.780;2023-02-08T03:48:27;49.93;;;26.80;;
6017;SDS011;3037;51.068;13.780;2023-02-08T03:50:55;61.80;;;28.20;;
6017;SDS011;3037;51.068;13.780;2023-02-08T03:53:22;57.60;;;28.77;;
6017;SDS011;3037;51.068;13.780;2023-02-08T03:55:51;51.13;;;27.50;;
6017;SDS011;3037;51.068;13.780;2023-02-08T04:01:15;43.90;;;24.40;;
6017;SDS011;3037;51.068;13.780;2023-02-08T04:03:47;49.07;;;26.00;;
6017;SDS011;3037;51.068;13.780;2023-02-08T04:06:14;52.17;;;26.77;;
6017;SDS011;3037;51.068;13.780;2023-02-08T04:08:41;45.13;;;24.20;;
6017;SDS011;3037;51.068;13.780;2023-02-08T04:11:06;48.07;;;26.83;;
6017;SDS011;3037;51.068;13.780;2023-02-08T04:13:32;52.07;;;25.40;;
6017;SDS011;3037;51.068;13.780;2023-02-08T04:15:57;48.23;;;25.87;;
6017;SDS011;3037;51.068;13.780;2023-02-08T04:18:23;49.97;;;26.60;;
6017;SDS011;3037;51.068;13.780;2023-02-08T04:20:48;48.47;;;25.43;;
6017;SDS011;3037;51.068;13.780;2023-02-08T04:23:14;52.07;;;26.63;;
6017;SDS011;3037;51.068;13.780;2023-02-08T04:25:39;59.10;;;26.13;;
6017;SDS011;3037;51.068;13.780;2023-02-08T04:28:05;49.30;;;24.13;;
6017;SDS011;3037;51.068;13.780;2023-02-08T04:30:30;45.13;;;23.77;;
6017;SDS011;3037;51.068;13.780;2023-02-08T04:32:56;52.87;;;25.10;;
6017;SDS011;3037;51.068;13.780;2023-02-08T04:35:23;62.67;;;25.90;;
6017;SDS011;3037;51.068;13.780;2023-02-08T04:37:49;51.50;;;26.47;;
6017;SDS011;3037;51.068;13.780;2023-02-08T04:40:15;44.13;;;22.37;;
6017;SDS011;3037;51.068;13.780;2023-02-08T04:42:41;49.57;;;25.10;;
6017;SDS011;3037;51.068;13.780;2023-02-08T04:45:06;45.70;;;24.93;;
6017;SDS011;3037;51.068;13.780;2023-02-08T04:47:32;48.93;;;26.50;;
6017;SDS011;3037;51.068;13.780;2023-02-08T04:49:58;51.07;;;26.10;;
6017;SDS011;3037;51.068;13.780;2023-02-08T04:52:23;51.73;;;26.93;;
6017;SDS011;3037;51.068;13.780;2023-02-08T04:54:49;53.13;;;25.80;;
6017;SDS011;3037;51.068;13.780;2023-02-08T04:57:14;53.97;;;26.67;;
6017;SDS011;3037;51.068;13.780;2023-02-08T04:59:40;52.50;;;26.73;;
6017;SDS011;3037;51.068;13.780;2023-02-08T05:02:05;52.93;;;26.23;;
6017;SDS011;3037;51.068;13.780;2023-02-08T05:04:31;48.03;;;24.60;;
6017;SDS011;3037;51.068;13.780;2023-02-08T05:06:57;52.20;;;25.37;;
6017;SDS011;3037;51.068;13.780;2023-02-08T05:09:22;55.40;;;25.40;;
6017;SDS011;3037;51.068;13.780;2023-02-08T05:11:48;49.30;;;25.20;;
6017;SDS011;3037;51.068;13.780;2023-02-08T05:14:13;58.03;;;27.50;;
6017;SDS011;3037;51.068;13.780;2023-02-08T05:16:39;54.90;;;27.90;;
6017;SDS011;3037;51.068;13.780;2023-02-08T05:19:04;52.20;;;27.60;;
6017;SDS011;3037;51.068;13.780;2023-02-08T05:21:30;67.90;;;28.60;;
6017;SDS011;3037;51.068;13.780;2023-02-08T05:23:55;55.60;;;28.10;;
6017;SDS011;3037;51.068;13.780;2023-02-08T05:26:21;51.40;;;26.70;;
6017;SDS011;3037;51.068;13.780;2023-02-08T05:28:46;49.13;;;25.70;;
6017;SDS011;3037;51.068;13.780;2023-02-08T05:31:19;60.27;;;26.77;;
6017;SDS011;3037;51.068;13.780;2023-02-08T05:33:47;60.60;;;25.90;;
6017;SDS011;3037;51.068;13.780;2023-02-08T05:36:13;54.43;;;27.37;;
6017;SDS011;3037;51.068;13.780;2023-02-08T05:38:39;48.40;;;24.43;;
6017;SDS011;3037;51.068;13.780;2023-02-08T05:41:04;45.77;;;25.80;;
6017;SDS011;3037;51.068;13.780;2023-02-08T05:43:30;50.77;;;26.27;;
6017;SDS011;3037;51.068;13.780;2023-02-08T05:45:55;50.00;;;25.57;;
6017;SDS011;3037;51.068;13.780;2023-02-08T05:48:21;56.13;;;26.53;;
6017;SDS011;3037;51.068;13.780;2023-02-08T05:50:46;56.50;;;27.63;;
6017;SDS011;3037;51.068;13.780;2023-02-08T05:53:12;56.83;;;27.67;;
6017;SDS011;3037;51.068;13.780;2023-02-08T05:55:37;54.80;;;28.67;;
6017;SDS011;3037;51.068;13.780;2023-02-08T05:58:03;55.87;;;29.97;;
6017;SDS011;3037;51.068;13.780;2023-02-08T06:00:28;54.70;;;28.90;;
6017;SDS011;3037;51.068;13.780;2023-02-08T06:02:54;54.90;;;30.50;;
6017;SDS011;3037;51.068;13.780;2023-02-08T06:05:21;56.30;;;29.20;;
6017;SDS011;3037;51.068;13.780;2023-02-08T06:07:46;60.80;;;26.97;;
6017;SDS011;3037;51.068;13.780;2023-02-08T06:10:12;57.73;;;28.63;;
6017;SDS011;3037;51.068;13.780;2023-02-08T06:12:37;54.00;;;28.37;;
6017;SDS011;3037;51.068;13.780;2023-02-08T06:15:03;66.73;;;31.03;;
6017;SDS011;3037;51.068;13.780;2023-02-08T06:17:28;64.07;;;30.87;;
6017;SDS011;3037;51.068;13.780;2023-02-08T06:19:54;63.20;;;28.30;;
6017;SDS011;3037;51.068;13.780;2023-02-08T06:22:19;64.77;;;29.97;;
6017;SDS011;3037;51.068;13.780;2023-02-08T06:24:45;69.77;;;30.53;;
6017;SDS011;3037;51.068;13.780;2023-02-08T06:27:11;72.17;;;32.90;;
6017;SDS011;3037;51.068;13.780;2023-02-08T06:29:37;68.20;;;29.83;;
6017;SDS011;3037;51.068;13.780;2023-02-08T06:32:02;61.37;;;31.30;;
6017;SDS011;3037;51.068;13.780;2023-02-08T06:34:28;61.23;;;28.77;;
6017;SDS011;3037;51.068;13.780;2023-02-08T06:36:53;68.60;;;30.47;;
6017;SDS011;3037;51.068;13.780;2023-02-08T06:39:19;59.10;;;29.70;;
6017;SDS011;3037;51.068;13.780;2023-02-08T06:41:44;57.70;;;28.87;;
6017;SDS011;3037;51.068;13.780;2023-02-08T06:44:10;60.10;;;29.47;;
6017;SDS011;3037;51.068;13.780;2023-02-08T06:46:36;64.20;;;31.00;;
6017;SDS011;3037;51.068;13.780;2023-02-08T06:49:01;61.17;;;29.10;;
6017;SDS011;3037;51.068;13.780;2023-02-08T06:51:27;71.47;;;30.97;;
6017;SDS011;3037;51.068;13.780;2023-02-08T06:53:52;65.53;;;29.83;;
6017;SDS011;3037;51.068;13.780;2023-02-08T06:56:18;68.67;;;31.10;;
6017;SDS011;3037;51.068;13.780;2023-02-08T06:58:43;71.83;;;33.10;;
6017;SDS011;3037;51.068;13.780;2023-02-08T07:01:12;60.57;;;28.40;;
6017;SDS011;3037;51.068;13.780;2023-02-08T07:03:38;68.83;;;31.63;;
6017;SDS011;3037;51.068;13.780;2023-02-08T07:06:04;63.00;;;29.00;;
6017;SDS011;3037;51.068;13.780;2023-02-08T07:08:30;55.90;;;31.83;;
6017;SDS011;3037;51.068;13.780;2023-02-08T07:10:57;57.23;;;29.77;;
6017;SDS011;3037;51.068;13.780;2023-02-08T07:13:22;59.53;;;29.13;;
6017;SDS011;3037;51.068;13.780;2023-02-08T07:15:48;72.73;;;29.13;;
6017;SDS011;3037;51.068;13.780;2023-02-08T07:18:13;66.20;;;30.47;;
6017;SDS011;3037;51.068;13.780;2023-02-08T07:20:39;70.90;;;31.67;;
6017;SDS011;3037;51.068;13.780;2023-02-08T07:23:04;67.97;;;33.70;;
6017;SDS011;3037;51.068;13.780;2023-02-08T07:25:30;70.53;;;31.53;;
6017;SDS011;3037;51.068;13.780;2023-02-08T07:27:55;63.47;;;28.23;;
6017;SDS011;3037;51.068;13.780;2023-02-08T07:30:21;58.83;;;29.00;;
6017;SDS011;3037;51.068;13.780;2023-02-08T07:32:46;62.07;;;27.70;;
6017;SDS011;3037;51.068;13.780;2023-02-08T07:35:12;61.47;;;29.57;;
6017;SDS011;3037;51.068;13.780;2023-02-08T07:37:37;59.50;;;31.10;;
6017;SDS011;3037;51.068;13.780;2023-02-08T07:40:03;63.57;;;30.63;;
6017;SDS011;3037;51.068;13.780;2023-02-08T07:42:28;62.07;;;28.53;;
6017;SDS011;3037;51.068;13.780;2023-02-08T07:44:54;61.33;;;30.37;;
6017;SDS011;3037;51.068;13.780;2023-02-08T07:47:19;65.90;;;30.60;;
6017;SDS011;3037;51.068;13.780;2023-02-08T07:49:45;54.77;;;28.97;;
6017;SDS011;3037;51.068;13.780;2023-02-08T07:52:11;57.47;;;27.23;;
6017;SDS011;3037;51.068;13.780;2023-02-08T07:54:36;53.73;;;27.13;;
6017;SDS011;3037;51.068;13.780;2023-02-08T07:57:01;54.90;;;30.27;;
6017;SDS011;3037;51.068;13.780;2023-02-08T07:59:27;56.03;;;28.50;;
6017;SDS011;3037;51.068;13.780;2023-02-08T08:01:53;52.77;;;28.30;;
6017;SDS011;3037;51.068;13.780;2023-02-08T08:04:18;50.10;;;27.63;;
6017;SDS011;3037;51.068;13.780;2023-02-08T08:06:45;51.83;;;28.07;;
6017;SDS011;3037;51.068;13.780;2023-02-08T08:09:11;49.13;;;26.30;;
6017;SDS011;3037;51.068;13.780;2023-02-08T08:11:39;53.67;;;27.00;;
6017;SDS011;3037;51.068;13.780;2023-02-08T08:14:04;54.23;;;26.47;;
6017;SDS011;3037;51.068;13.780;2023-02-08T08:16:30;60.10;;;28.97;;
6017;SDS011;3037;51.068;13.780;2023-02-08T08:18:55;54.70;;;28.03;;
6017;SDS011;3037;51.068;13.780;2023-02-08T08:21:21;56.67;;;28.30;;
6017;SDS011;3037;51.068;13.780;2023-02-08T08:23:46;53.00;;;28.43;;
6017;SDS011;3037;51.068;13.780;2023-02-08T08:26:13;51.43;;;28.90;;
6017;SDS011;3037;51.068;13.780;2023-02-08T08:28:43;52.97;;;26.10;;
6017;SDS011;3037;51.068;13.780;2023-02-08T08:31:14;56.60;;;29.50;;
6017;SDS011;3037;51.068;13.780;2023-02-08T08:33:42;51.77;;;28.77;;
6017;SDS011;3037;51.068;13.780;2023-02-08T08:36:08;55.40;;;28.93;;
6017;SDS011;3037;51.068;13.780;2023-02-08T08:38:34;49.93;;;26.27;;
6017;SDS011;3037;51.068;13.780;2023-02-08T08:41:05;49.67;;;26.30;;
6017;SDS011;3037;51.068;13.780;2023-02-08T08:43:32;51.17;;;25.07;;
6017;SDS011;3037;51.068;13.780;2023-02-08T08:45:57;45.90;;;25.03;;
6017;SDS011;3037;51.068;13.780;2023-02-08T08:48:23;45.30;;;25.03;;
6017;SDS011;3037;51.068;13.780;2023-02-08T08:50:48;46.13;;;25.37;;
6017;SDS011;3037;51.068;13.780;2023-02-08T08:53:14;41.00;;;23.33;;
6017;SDS011;3037;51.068;13.780;2023-02-08T08:55:40;45.80;;;25.17;;
6017;SDS011;3037;51.068;13.780;2023-02-08T08:58:05;38.60;;;21.83;;
6017;SDS011;3037;51.068;13.780;2023-02-08T09:00:31;44.30;;;24.60;;
6017;SDS011;3037;51.068;13.780;2023-02-08T09:02:56;43.37;;;24.00;;
6017;SDS011;3037;51.068;13.780;2023-02-08T09:05:22;47.53;;;26.07;;
6017;SDS011;3037;51.068;13.780;2023-02-08T09:07:47;45.60;;;24.27;;
6017;SDS011;3037;51.068;13.780;2023-02-08T09:10:13;41.90;;;23.17;;
6017;SDS011;3037;51.068;13.780;2023-02-08T09:12:38;47.67;;;21.70;;
6017;SDS011;3037;51.068;13.780;2023-02-08T09:15:04;38.80;;;22.97;;
6017;SDS011;3037;51.068;13.780;2023-02-08T09:17:30;41.37;;;22.67;;
6017;SDS011;3037;51.068;13.780;2023-02-08T09:19:55;38.33;;;21.23;;
6017;SDS011;3037;51.068;13.780;2023-02-08T09:22:21;40.03;;;23.70;;
6017;SDS011;3037;51.068;13.780;2023-02-08T09:24:46;40.67;;;22.90;;
6017;SDS011;3037;51.068;13.780;2023-02-08T09:27:12;39.33;;;20.97;;
6017;SDS011;3037;51.068;13.780;2023-02-08T09:29:38;41.13;;;22.73;;
6017;SDS011;3037;51.068;13.780;2023-02-08T09:32:04;34.80;;;22.17;;
6017;SDS011;3037;51.068;13.780;2023-02-08T09:34:29;43.10;;;22.17;;
6017;SDS011;3037;51.068;13.780;2023-02-08T09:36:55;39.07;;;20.17;;
6017;SDS011;3037;51.068;13.780;2023-02-08T09:39:22;34.70;;;20.50;;
6017;SDS011;3037;51.068;13.780;2023-02-08T09:44:40;47.70;;;19.67;;
6017;SDS011;3037;51.068;13.780;2023-02-08T09:50:01;43.07;;;20.80;;
6017;SDS011;3037;51.068;13.780;2023-02-08T09:52:33;38.17;;;20.33;;
6017;SDS011;3037;51.068;13.780;2023-02-08T09:58:16;36.57;;;19.50;;
6017;SDS011;3037;51.068;13.780;2023-02-08T10:01:02;40.43;;;21.27;;
6017;SDS011;3037;51.068;13.780;2023-02-08T10:03:41;36.53;;;20.50;;
6017;SDS011;3037;51.068;13.780;2023-02-08T10:06:10;40.53;;;18.83;;
6017;SDS011;3037;51.068;13.780;2023-02-08T10:08:38;33.47;;;20.40;;
6017;SDS011;3037;51.068;13.780;2023-02-08T10:13:57;39.27;;;21.43;;
6017;SDS011;3037;51.068;13.780;2023-02-08T10:16:54;36.67;;;20.23;;
6017;SDS011;3037;51.068;13.780;2023-02-08T10:28:14;35.07;;;21.00;;
6017;SDS011;3037;51.068;13.780;2023-02-08T10:35:55;39.53;;;21.80;;
6017;SDS011;3037;51.068;13.780;2023-02-08T10:38:23;36.73;;;20.77;;
6017;SDS011;3037;51.068;13.780;2023-02-08T10:40:59;39.27;;;20.47;;
6017;SDS011;3037;51.068;13.780;2023-02-08T10:51:34;34.03;;;20.87;;
6017;SDS011;3037;51.068;13.780;2023-02-08T10:53:59;34.90;;;19.87;;
6017;SDS011;3037;51.068;13.780;2023-02-08T10:58:54;34.13;;;18.73;;
6017;SDS011;3037;51.068;13.780;2023-02-08T11:01:24;36.47;;;19.90;;
6017;SDS011;3037;51.068;13.780;2023-02-08T11:04:05;36.93;;;19.93;;
6017;SDS011;3037;51.068;13.780;2023-02-08T11:06:36;33.80;;;18.93;;
6017;SDS011;3037;51.068;13.780;2023-02-08T11:09:02;30.70;;;19.43;;
6017;SDS011;3037;51.068;13.780;2023-02-08T11:11:32;32.40;;;20.47;;
6017;SDS011;3037;51.068;13.780;2023-02-08T11:14:12;34.70;;;20.80;;
6017;SDS011;3037;51.068;13.780;2023-02-08T11:16:54;35.77;;;20.03;;
6017;SDS011;3037;51.068;13.780;2023-02-08T11:19:22;37.17;;;18.73;;
6017;SDS011;3037;51.068;13.780;2023-02-08T11:21:56;32.60;;;18.50;;
6017;SDS011;3037;51.068;13.780;2023-02-08T11:24:27;40.70;;;20.57;;
6017;SDS011;3037;51.068;13.780;2023-02-08T11:26:59;41.13;;;20.07;;
6017;SDS011;3037;51.068;13.780;2023-02-08T11:29:27;33.93;;;20.80;;
6017;SDS011;3037;51.068;13.780;2023-02-08T11:36:56;36.00;;;19.40;;
6017;SDS011;3037;51.068;13.780;2023-02-08T11:39:42;34.80;;;20.27;;
6017;SDS011;3037;51.068;13.780;2023-02-08T11:42:33;33.70;;;17.60;;
6017;SDS011;3037;51.068;13.780;2023-02-08T11:45:02;37.20;;;19.40;;
6017;SDS011;3037;51.068;13.780;2023-02-08T11:47:30;34.97;;;19.63;;
6017;SDS011;3037;51.068;13.780;2023-02-08T11:49:58;30.03;;;18.07;;
6017;SDS011;3037;51.068;13.780;2023-02-08T11:52:29;35.37;;;19.10;;
6017;SDS011;3037;51.068;13.780;2023-02-08T12:00:21;28.07;;;17.17;;
6017;SDS011;3037;51.068;13.780;2023-02-08T12:02:50;31.80;;;17.30;;
6017;SDS011;3037;51.068;13.780;2023-02-08T12:05:25;40.83;;;19.13;;
6017;SDS011;3037;51.068;13.780;2023-02-08T12:08:23;30.57;;;17.93;;
6017;SDS011;3037;51.068;13.780;2023-02-08T12:11:10;32.00;;;17.40;;
6017;SDS011;3037;51.068;13.780;2023-02-08T12:13:57;30.50;;;16.07;;
6017;SDS011;3037;51.068;13.780;2023-02-08T12:21:55;33.27;;;17.90;;
6017;SDS011;3037;51.068;13.780;2023-02-08T12:32:42;34.57;;;16.50;;
6017;SDS011;3037;51.068;13.780;2023-02-08T12:35:24;26.17;;;16.23;;
6017;SDS011;3037;51.068;13.780;2023-02-08T12:41:51;31.13;;;17.10;;
6017;SDS011;3037;51.068;13.780;2023-02-08T12:50:06;30.30;;;15.77;;
6017;SDS011;3037;51.068;13.780;2023-02-08T12:52:51;25.03;;;14.17;;
6017;SDS011;3037;51.068;13.780;2023-02-08T12:55:25;24.77;;;13.40;;
6017;SDS011;3037;51.068;13.780;2023-02-08T12:57:58;23.50;;;14.27;;
6017;SDS011;3037;51.068;13.780;2023-02-08T13:00:33;31.57;;;14.90;;
6017;SDS011;3037;51.068;13.780;2023-02-08T13:05:58;27.17;;;13.50;;
6017;SDS011;3037;51.068;13.780;2023-02-08T13:08:32;23.93;;;12.77;;
6017;SDS011;3037;51.068;13.780;2023-02-08T13:13:39;26.83;;;15.13;;
6017;SDS011;3037;51.068;13.780;2023-02-08T13:21:48;27.83;;;14.70;;
6017;SDS011;3037;51.068;13.780;2023-02-08T13:24:21;23.57;;;14.30;;
6017;SDS011;3037;51.068;13.780;2023-02-08T13:26:52;31.70;;;15.40;;
6017;SDS011;3037;51.068;13.780;2023-02-08T13:29:18;32.23;;;14.87;;
6017;SDS011;3037;51.068;13.780;2023-02-08T13:31:47;27.27;;;14.53;;
6017;SDS011;3037;51.068;13.780;2023-02-08T13:34:20;37.03;;;16.60;;
6017;SDS011;3037;51.068;13.780;2023-02-08T13:36:49;25.20;;;13.93;;
6017;SDS011;3037;51.068;13.780;2023-02-08T13:42:21;33.77;;;16.90;;
6017;SDS011;3037;51.068;13.780;2023-02-08T13:44:55;31.97;;;15.97;;
6017;SDS011;3037;51.068;13.780;2023-02-08T13:47:32;30.00;;;14.60;;
6017;SDS011;3037;51.068;13.780;2023-02-08T13:50:08;30.70;;;15.67;;
6017;SDS011;3037;51.068;13.780;2023-02-08T13:53:17;25.73;;;14.30;;
6017;SDS011;3037;51.068;13.780;2023-02-08T13:56:10;28.77;;;14.90;;
6017;SDS011;3037;51.068;13.780;2023-02-08T14:01:15;31.30;;;14.70;;
6017;SDS011;3037;51.068;13.780;2023-02-08T14:03:41;27.43;;;15.77;;
6017;SDS011;3037;51.068;13.780;2023-02-08T14:06:23;30.00;;;17.10;;
6017;SDS011;3037;51.068;13.780;2023-02-08T14:11:47;26.90;;;13.13;;
6017;SDS011;3037;51.068;13.780;2023-02-08T14:14:28;25.60;;;15.17;;
6017;SDS011;3037;51.068;13.780;2023-02-08T14:19:57;29.63;;;15.47;;
6017;SDS011;3037;51.068;13.780;2023-02-08T14:22:34;24.10;;;12.50;;
6017;SDS011;3037;51.068;13.780;2023-02-08T14:25:06;24.53;;;14.93;;
6017;SDS011;3037;51.068;13.780;2023-02-08T14:28:03;29.67;;;14.60;;
6017;SDS011;3037;51.068;13.780;2023-02-08T14:30:31;23.87;;;12.77;;
6017;SDS011;3037;51.068;13.780;2023-02-08T14:35:31;22.43;;;13.40;;
6017;SDS011;3037;51.068;13.780;2023-02-08T14:40:48;23.63;;;14.23;;
6017;SDS011;3037;51.068;13.780;2023-02-08T14:45:49;23.43;;;13.10;;
6017;SDS011;3037;51.068;13.780;2023-02-08T14:48:25;21.10;;;12.40;;
6017;SDS011;3037;51.068;13.780;2023-02-08T14:50:58;23.47;;;12.80;;
6017;SDS011;3037;51.068;13.780;2023-02-08T14:53:45;28.03;;;13.27;;
6017;SDS011;3037;51.068;13.780;2023-02-08T14:56:19;25.77;;;13.60;;
6017;SDS011;3037;51.068;13.780;2023-02-08T14:58:48;28.00;;;14.20;;
6017;SDS011;3037;51.068;13.780;2023-02-08T15:01:39;24.93;;;13.53;;
6017;SDS011;3037;51.068;13.780;2023-02-08T15:04:17;23.90;;;13.53;;
6017;SDS011;3037;51.068;13.780;2023-02-08T15:09:28;23.43;;;12.30;;
6017;SDS011;3037;51.068;13.780;2023-02-08T15:12:19;29.97;;;13.77;;
6017;SDS011;3037;51.068;13.780;2023-02-08T15:14:49;28.17;;;13.70;;
6017;SDS011;3037;51.068;13.780;2023-02-08T15:17:20;29.33;;;14.10;;
6017;SDS011;3037;51.068;13.780;2023-02-08T15:19:55;23.33;;;14.17;;
6017;SDS011;3037;51.068;13.780;2023-02-08T15:24:56;30.13;;;14.53;;
6017;SDS011;3037;51.068;13.780;2023-02-08T15:27:26;24.80;;;13.70;;
6017;SDS011;3037;51.068;13.780;2023-02-08T15:29:54;18.80;;;12.30;;
6017;SDS011;3037;51.068;13.780;2023-02-08T15:32:21;27.00;;;13.80;;
6017;SDS011;3037;51.068;13.780;2023-02-08T15:34:51;29.07;;;15.23;;
6017;SDS011;3037;51.068;13.780;2023-02-08T15:37:22;23.10;;;12.87;;
6017;SDS011;3037;51.068;13.780;2023-02-08T15:39:49;32.47;;;14.90;;
6017;SDS011;3037;51.068;13.780;2023-02-08T15:42:20;25.27;;;13.80;;
6017;SDS011;3037;51.068;13.780;2023-02-08T15:44:48;29.60;;;14.23;;
6017;SDS011;3037;51.068;13.780;2023-02-08T15:47:20;26.60;;;14.73;;
6017;SDS011;3037;51.068;13.780;2023-02-08T15:49:51;28.03;;;14.20;;
6017;SDS011;3037;51.068;13.780;2023-02-08T15:52:20;27.40;;;12.53;;
6017;SDS011;3037;51.068;13.780;2023-02-08T15:54:48;24.63;;;14.20;;
6017;SDS011;3037;51.068;13.780;2023-02-08T15:57:20;24.90;;;13.20;;
6017;SDS011;3037;51.068;13.780;2023-02-08T16:00:13;21.63;;;13.73;;
6017;SDS011;3037;51.068;13.780;2023-02-08T16:02:42;19.13;;;12.10;;
6017;SDS011;3037;51.068;13.780;2023-02-08T16:05:18;24.20;;;14.07;;
6017;SDS011;3037;51.068;13.780;2023-02-08T16:07:46;21.27;;;12.97;;
6017;SDS011;3037;51.068;13.780;2023-02-08T16:10:23;23.83;;;12.97;;
6017;SDS011;3037;51.068;13.780;2023-02-08T16:12:56;24.73;;;13.93;;
6017;SDS011;3037;51.068;13.780;2023-02-08T16:15:37;24.27;;;13.50;;
6017;SDS011;3037;51.068;13.780;2023-02-08T16:18:28;24.03;;;13.77;;
6017;SDS011;3037;51.068;13.780;2023-02-08T16:20:57;26.03;;;13.73;;
6017;SDS011;3037;51.068;13.780;2023-02-08T16:23:28;22.83;;;13.23;;
6017;SDS011;3037;51.068;13.780;2023-02-08T16:25:55;36.23;;;13.17;;
6017;SDS011;3037;51.068;13.780;2023-02-08T16:28:28;23.60;;;13.30;;
6017;SDS011;3037;51.068;13.780;2023-02-08T16:30:56;27.27;;;14.67;;
6017;SDS011;3037;51.068;13.780;2023-02-08T16:33:26;30.70;;;13.77;;
6017;SDS011;3037;51.068;13.780;2023-02-08T16:35:53;25.13;;;14.20;;
6017;SDS011;3037;51.068;13.780;2023-02-08T16:38:26;34.63;;;14.53;;
6017;SDS011;3037;51.068;13.780;2023-02-08T16:40:53;29.10;;;12.43;;
6017;SDS011;3037;51.068;13.780;2023-02-08T16:43:27;26.00;;;13.07;;
6017;SDS011;3037;51.068;13.780;2023-02-08T16:48:40;24.93;;;13.83;;
6017;SDS011;3037;51.068;13.780;2023-02-08T16:51:11;30.40;;;14.50;;
6017;SDS011;3037;51.068;13.780;2023-02-08T16:53:40;27.80;;;15.70;;
6017;SDS011;3037;51.068;13.780;2023-02-08T16:56:07;30.53;;;15.93;;
6017;SDS011;3037;51.068;13.780;2023-02-08T16:58:33;36.10;;;15.80;;